Flight Track Log - Related Links

Times and Time Zones

All times are in EDT time to prevent confusion due to time zone crossing. See the CPT7773 flight status page for this flight to view local times or setup timezone preferences in your user account.

Time Position Orientation Groundspeed Altitude Reporting Facility
EDT Latitude Longitude Course Direction KTS MPH feet Rate Location/Type
Thu 08:18:16 PM 44.4411 -108.9272 123° Southeast 129 148 8,800  Level Salt Lake Center
Thu 08:19:17 PM 44.4206 -108.8833 123° Southeast 134 154 9,600 634 Climbing Salt Lake Center
Thu 08:20:19 PM 44.4006 -108.8425 124° Southeast 132 152 10,100 484 Climbing Salt Lake Center
Thu 08:21:21 PM 44.3758 -108.8039 132° Southeast 131 151 10,600 439 Climbing Salt Lake Center
Thu 08:22:22 PM 44.3514 -108.7647 131° Southeast 133 153 11,000 439 Climbing Salt Lake Center
Thu 08:23:24 PM 44.3269 -108.7231 129° Southeast 135 155 11,500 435 Climbing Salt Lake Center
Thu 08:24:26 PM 44.3028 -108.6847 131° Southeast 135 155 11,900 293 Climbing Salt Lake Center
Thu 08:25:27 PM 44.2733 -108.6356 130° Southeast 136 157 12,100 49 Climbing Salt Lake Center
Thu 08:26:29 PM 44.2472 -108.5911 129° Southeast 140 161 12,000 -48 Descending Salt Lake Center
Thu 08:27:31 PM 44.2214 -108.5453 128° Southeast 145 167 12,000 48 Level Salt Lake Center
Thu 08:28:33 PM 44.1936 -108.5014 131° Southeast 148 170 12,100  Climbing Salt Lake Center
Thu 08:29:34 PM 44.1669 -108.4567 130° Southeast 150 173 12,000 -49 Descending Salt Lake Center
Thu 08:30:36 PM 44.1406 -108.4119 129° Southeast 150 173 12,000  Level Salt Lake Center
Thu 08:31:38 PM 44.1078 -108.3589 131° Southeast 150 173 12,000  Level Salt Lake Center
Thu 08:32:40 PM 44.0803 -108.3136 130° Southeast 152 175 12,000 48 Level Salt Lake Center
Thu 08:33:42 PM 44.0536 -108.2703 131° Southeast 151 174 12,100 49 Climbing Salt Lake Center
Thu 08:34:43 PM 44.0272 -108.2261 130° Southeast 150 173 12,100 -49 Level Salt Lake Center
Thu 08:35:45 PM 43.9986 -108.1836 133° Southeast 150 173 12,000  Descending Salt Lake Center
Thu 08:36:47 PM 43.9717 -108.1381 129° Southeast 151 174 12,100  Climbing Salt Lake Center
Thu 08:37:49 PM 43.9444 -108.0944 131° Southeast 151 174 12,000  Descending Salt Lake Center
Thu 08:38:51 PM 43.9125 -108.0431 131° Southeast 149 171 12,100 49 Climbing Salt Lake Center
Thu 08:39:52 PM 43.8861 -108.0000 130° Southeast 148 170 12,100  Level Salt Lake Center
Thu 08:40:54 PM 43.8592 -107.9569 131° Southeast 148 170 12,100 -48 Level Salt Lake Center
Thu 08:41:56 PM 43.8322 -107.9150 132° Southeast 147 169 12,000  Descending Salt Lake Center
Thu 08:42:58 PM 43.8067 -107.8722 130° Southeast 146 168 12,100  Climbing Salt Lake Center
Thu 08:43:59 PM 43.7803 -107.8306 131° Southeast 146 168 12,000 -49 Descending Salt Lake Center
Thu 08:45:01 PM 43.7494 -107.7806 130° Southeast 144 166 12,000 48 Level Salt Lake Center
Thu 08:46:03 PM 43.7236 -107.7394 131° Southeast 143 165 12,100 48 Climbing Salt Lake Center
Thu 08:47:05 PM 43.6989 -107.6994 131° Southeast 141 162 12,100  Level Salt Lake Center
Thu 08:48:06 PM 43.6742 -107.6614 132° Southeast 138 159 12,100  Level Salt Lake Center
Thu 08:49:08 PM 43.6494 -107.6217 131° Southeast 136 157 12,100  Level Salt Lake Center
Thu 08:50:10 PM 43.6244 -107.5822 131° Southeast 136 157 12,100 -49 Level Salt Lake Center
Thu 08:51:11 PM 43.5992 -107.5425 131° Southeast 137 158 12,000 -49 Descending Salt Lake Center
Thu 08:52:13 PM 43.5700 -107.4969 131° Southeast 135 155 12,000 48 Level Salt Lake Center
Thu 08:53:15 PM 43.5444 -107.4586 133° Southeast 135 155 12,100 48 Climbing Salt Lake Center
Thu 08:54:17 PM 43.5217 -107.4192 129° Southeast 134 154 12,100  Level Salt Lake Center
Thu 08:55:19 PM 43.4972 -107.3800 131° Southeast 134 154 12,100  Level Salt Lake Center
Thu 08:56:20 PM 43.4725 -107.3425 132° Southeast 134 154 12,100  Level Salt Lake Center
Thu 08:57:22 PM 43.4481 -107.3042 131° Southeast 133 153 12,100  Level Salt Lake Center
Thu 08:58:24 PM 43.4225 -107.2647 132° Southeast 136 157 12,100 -49 Level Salt Lake Center
Thu 08:59:25 PM 43.3942 -107.2186 130° Southeast 134 154 12,000  Descending Salt Lake Center
Thu 09:00:27 PM 43.3683 -107.1811 133° Southeast 134 154 12,100 48 Climbing Salt Lake Center
Thu 09:01:29 PM 43.3456 -107.1411 128° Southeast 133 153 12,100  Level Salt Lake Center
Thu 09:02:31 PM 43.3194 -107.1022 133° Southeast 137 158 12,100  Level Salt Lake Center
Thu 09:03:32 PM 43.2956 -107.0636 130° Southeast 135 155 12,100  Level Salt Lake Center
Thu 09:04:34 PM 43.2697 -107.0253 133° Southeast 135 155 12,100  Level Salt Lake Center
Thu 09:05:36 PM 43.2436 -106.9850 132° Southeast 140 161 12,100  Level Salt Lake Center
Thu 09:06:37 PM 43.2108 -106.9378 134° Southeast 142 163 12,100 -146 Level Salt Lake Center
Thu 09:07:39 PM 43.1828 -106.8925 130° Southeast 149 171 11,800 -242 Descending Salt Lake Center
Thu 09:08:41 PM 43.1550 -106.8508 132° Southeast 154 177 11,600 -290 Descending Salt Lake Center
Thu 09:09:43 PM 43.1258 -106.8061 132° Southeast 160 184 11,200 -406 Descending Salt Lake Center
Thu 09:10:54 PM 43.0869 -106.7419 130° Southeast 169 194 10,700 -586 Descending Denver Center
Thu 09:11:56 PM 43.0564 -106.6939 131° Southeast 174 200 9,900 -878 Descending Denver Center
Thu 09:12:57 PM 43.0103 -106.6544 148° Southeast 173 199 8,900 -927 Descending Denver Center
Thu 09:13:59 PM 42.9736 -106.6075 137° Southeast 183 211 8,000 -871 Descending Denver Center
Thu 09:15:01 PM 42.9300 -106.5572 140° Southeast 184 212 7,100 -484 Descending Denver Center
Thu 09:16:03 PM 42.8936 -106.5372 158° South 178 205 7,000 -97 Descending Denver Center

Login

Don't have an account? Register now (free) for customized features, flight alerts, and more!